This is the latest recevied weather packets stored in our database for station/object KF7SOJ. If no packets are shown the sender has not sent any weather packets the latest 10 day(s).
| Time | Temp. | Humidity | Pressure | Rain* | Wind** | Luminosity | Snow |
|---|---|---|---|---|---|---|---|
| 1777556975 | 6.11° C | 56% | 938.4 hPa | 0 mm | - | 115 W/m² | - |
| 1777556671 | 6.11° C | 57% | 938.3 hPa | 0 mm | - | 172 W/m² | - |
| 1777556367 | 6.11° C | 57% | 938.4 hPa | 0 mm | - | 157 W/m² | - |
| 1777556062 | 5.56° C | 59% | 938.4 hPa | 0 mm | - | 138 W/m² | - |
| 1777555762 | 5.56° C | 59% | 938.4 hPa | 0 mm | - | 128 W/m² | - |
| 1777555459 | 5° C | 60% | 938.2 hPa | 0 mm | - | 118 W/m² | - |
| 1777555155 | 5.56° C | 58% | 938.1 hPa | 0 mm | - | 104 W/m² | - |
| 1777554853 | 5.56° C | 58% | 938.2 hPa | 0 mm | - | 93 W/m² | - |
| 1777554549 | 5° C | 58% | 938.2 hPa | 0 mm | - | 84 W/m² | - |
| 1777554246 | 5° C | 59% | 938.3 hPa | 0 mm | - | 75 W/m² | - |
| 1777553943 | 5° C | 60% | 938.3 hPa | 0 mm | - | 73 W/m² | - |
| 1777553639 | 4.44° C | 62% | 938.2 hPa | 0 mm | - | 69 W/m² | - |
| 1777553336 | 3.89° C | 62% | 938.1 hPa | 0 mm | - | 58 W/m² | - |
| 1777553032 | 3.33° C | 64% | 938 hPa | 0 mm | - | 52 W/m² | - |
| 1777552727 | 3.33° C | 63% | 938.1 hPa | 0 mm | - | 41 W/m² | - |
| 1777552423 | 3.33° C | 63% | 938 hPa | 0 mm | - | 34 W/m² | - |
| 1777552120 | 3.33° C | 65% | 938 hPa | 0 mm | - | 27 W/m² | - |
| 1777551817 | 2.78° C | 64% | 938 hPa | 0 mm | - | 18 W/m² | - |
| 1777551515 | 2.78° C | 65% | 937.8 hPa | 0 mm | - | 13 W/m² | - |
| 1777551211 | 1.67° C | 68% | 937.8 hPa | 0 mm | - | 9 W/m² | - |
| 1777550908 | 2.22° C | 68% | 937.8 hPa | 0 mm | - | 6 W/m² | - |
| 1777550605 | 2.22° C | 66% | 938 hPa | 0 mm | - | 3 W/m² | - |
| 1777550301 | 1.67° C | 70% | 938 hPa | 0 mm | - | 2 W/m² | - |
| 1777549997 | 1.67° C | 69% | 938.1 hPa | 0 mm | - | 1 W/m² | - |
| 1777549695 | 2.22° C | 67% | 938 hPa | 0 mm | - | 0 W/m² | - |
* Rain latest hour (hover to see other rain measurements)
** Current wind speed in m/s (hover to see current wind gust speed)